createdAt,value
2022-10-18T00:09:53.759Z,2.90
2022-10-18T00:19:55.235Z,2.77
2022-10-18T00:29:56.584Z,3.10
2022-10-18T00:39:58.047Z,3.30
2022-10-18T00:50:02.922Z,3.40
2022-10-18T01:00:09.660Z,3.10
2022-10-18T01:10:16.968Z,3.33
2022-10-18T01:21:06.469Z,3.87
2022-10-18T01:31:20.632Z,4.00
2022-10-18T01:41:25.043Z,3.63
2022-10-18T01:51:28.204Z,3.80
2022-10-18T02:01:42.178Z,3.97
2022-10-18T02:11:47.438Z,4.60
2022-10-18T02:21:51.062Z,4.30
2022-10-18T02:32:00.468Z,3.80
2022-10-18T02:42:06.732Z,4.20
2022-10-18T02:52:08.076Z,4.70
2022-10-18T03:02:09.478Z,4.40
2022-10-18T03:12:10.798Z,4.27
2022-10-18T03:22:12.168Z,5.10
2022-10-18T03:32:13.480Z,5.87
2022-10-18T03:42:14.844Z,5.20
2022-10-18T03:52:19.069Z,5.13
2022-10-18T04:02:20.491Z,6.50
2022-10-18T04:12:21.833Z,6.70
2022-10-18T04:22:23.243Z,6.20
2022-10-18T04:32:24.893Z,6.53
2022-10-18T04:42:26.272Z,6.47
2022-10-18T04:52:27.643Z,9.10
2022-10-18T05:02:29.188Z,9.23
2022-10-18T05:12:30.926Z,9.70
2022-10-18T05:22:32.739Z,8.80
2022-10-18T05:32:34.791Z,8.87
2022-10-18T05:42:36.409Z,9.38
2022-10-18T05:52:37.769Z,6.17
2022-10-18T06:02:39.239Z,8.63
2022-10-18T06:12:40.614Z,10.23
2022-10-18T06:22:41.939Z,9.27
2022-10-18T06:32:43.318Z,10.03
2022-10-18T06:42:55.185Z,11.00
2022-10-18T06:53:04.266Z,12.30
2022-10-18T07:03:05.680Z,12.10
2022-10-18T07:13:31.068Z,13.83
2022-10-18T07:23:28.462Z,13.25
2022-10-18T07:33:29.829Z,13.53
2022-10-18T07:43:31.253Z,13.73
2022-10-18T07:53:34.434Z,15.23
2022-10-18T08:03:37.095Z,14.37
2022-10-18T08:13:38.813Z,16.17
2022-10-18T08:23:40.895Z,15.77
2022-10-18T08:33:42.210Z,18.77
2022-10-18T08:44:07.981Z,17.13
2022-10-18T08:54:15.090Z,13.30
2022-10-18T09:04:51.787Z,15.50
2022-10-18T09:15:01.297Z,14.93
2022-10-18T09:25:18.336Z,15.37
2022-10-18T09:35:25.285Z,13.27
2022-10-18T09:45:39.714Z,13.23
2022-10-18T09:56:00.290Z,10.97
2022-10-18T10:06:27.079Z,10.45
2022-10-18T10:16:28.458Z,10.77
2022-10-18T10:26:34.913Z,8.97
2022-10-18T10:36:49.991Z,6.83
2022-10-18T10:46:52.295Z,5.40
2022-10-18T10:57:04.274Z,7.27
2022-10-18T11:07:27.338Z,8.13
2022-10-18T11:17:42.336Z,8.80
2022-10-18T11:27:57.146Z,7.93
2022-10-18T11:38:27.398Z,4.83
2022-10-18T11:48:40.998Z,15.88
2022-10-18T11:59:05.664Z,8.63
2022-10-18T12:09:25.322Z,5.60
2022-10-18T12:19:29.225Z,6.60
2022-10-18T12:29:50.411Z,5.70
2022-10-18T12:40:09.764Z,6.80
2022-10-18T12:50:32.525Z,7.57
2022-10-18T13:00:33.812Z,5.85
2022-10-18T13:10:36.971Z,4.80
2022-10-18T13:20:44.205Z,3.83
2022-10-18T13:31:01.833Z,2.63
2022-10-18T13:41:08.077Z,2.92
2022-10-18T13:51:31.063Z,2.83
2022-10-18T14:01:58.965Z,2.50
2022-10-18T14:12:14.515Z,2.30
2022-10-18T14:22:23.408Z,2.00
2022-10-18T14:32:31.803Z,2.00
2022-10-18T14:42:33.132Z,1.88
2022-10-18T14:52:35.811Z,1.87
2022-10-18T15:02:38.688Z,1.80
2022-10-18T15:12:57.799Z,2.10
2022-10-18T15:23:20.905Z,2.63
2022-10-18T15:33:23.924Z,2.57
2022-10-18T15:43:28.340Z,1.40
2022-10-18T15:53:47.993Z,1.23
2022-10-18T16:03:51.254Z,1.30
2022-10-18T16:13:56.433Z,1.30
2022-10-18T16:24:01.150Z,2.00
2022-10-18T16:34:02.609Z,1.47
2022-10-18T16:44:04.042Z,2.13
2022-10-18T16:54:05.397Z,2.08
2022-10-18T17:04:06.721Z,2.10
2022-10-18T17:14:08.137Z,2.10
2022-10-18T17:24:09.543Z,4.23
2022-10-18T17:34:10.888Z,2.70
2022-10-18T17:44:12.221Z,2.13
2022-10-18T17:54:13.604Z,2.70
2022-10-18T18:04:16.928Z,2.40
2022-10-18T18:14:18.288Z,3.67
2022-10-18T18:24:24.643Z,5.23
2022-10-18T18:34:26.089Z,4.53
2022-10-18T18:44:27.848Z,2.75
2022-10-18T18:54:30.299Z,1.90
2022-10-18T19:04:31.738Z,2.00
2022-10-18T19:14:33.127Z,1.73
2022-10-18T19:24:34.472Z,2.40
2022-10-18T19:34:35.871Z,2.03
2022-10-18T19:44:37.266Z,2.88
2022-10-18T19:54:38.891Z,1.33
2022-10-18T20:04:40.289Z,2.00
2022-10-18T20:14:41.632Z,1.80
2022-10-18T20:24:43.520Z,1.63
2022-10-18T20:34:44.845Z,1.83
2022-10-18T20:44:46.988Z,2.13
2022-10-18T20:54:48.309Z,1.92
2022-10-18T21:04:49.645Z,2.17
2022-10-18T21:14:51.010Z,1.83
2022-10-18T21:24:52.356Z,2.20
2022-10-18T21:34:53.754Z,2.13
2022-10-18T21:44:55.124Z,2.37
2022-10-18T21:54:56.493Z,2.13
2022-10-18T22:04:57.894Z,2.58
2022-10-18T22:15:00.244Z,2.10
2022-10-18T22:25:01.600Z,2.13
2022-10-18T22:35:03.104Z,2.35
2022-10-18T22:45:04.914Z,2.30
2022-10-18T22:55:06.893Z,2.67
2022-10-18T23:05:08.379Z,2.80
2022-10-18T23:15:10.260Z,3.07
2022-10-18T23:25:11.649Z,2.77
2022-10-18T23:35:13.007Z,2.80
2022-10-18T23:45:14.352Z,3.10
2022-10-18T23:55:15.698Z,2.63
